This is the latest recevied weather packets stored in our database for station/object M0HZQ-1. If no packets are shown the sender has not sent any weather packets the latest 10 day(s).
| Time | Temp. | Humidity | Pressure | Rain* | Wind** | Luminosity | Snow |
|---|---|---|---|---|---|---|---|
| 1777741029 | 21.67° C | 41% | 1013.4 hPa | 0 mm | - | - | - |
| 1777739889 | 23.33° C | 37% | 1013.1 hPa | 0 mm | - | - | - |
| 1777738699 | 24.44° C | 34% | 1013.1 hPa | 0 mm | - | - | - |
| 1777737553 | 24.44° C | 33% | 1013.3 hPa | 0 mm | - | - | - |
| 1777736443 | 24.44° C | 33% | 1013.3 hPa | 0 mm | - | - | - |
| 1777735474 | 25° C | 33% | 1013.6 hPa | 0 mm | - | - | - |
| 1777734464 | 25° C | 32% | 1013.9 hPa | 0 mm | - | - | - |
| 1777733404 | 23.89° C | 33% | 1014.2 hPa | 0 mm | - | - | - |
| 1777732229 | 23.89° C | 33% | 1014.5 hPa | 0 mm | - | - | - |
| 1777731244 | 23.89° C | 33% | 1014.8 hPa | 0 mm | - | - | - |
| 1777730204 | 23.89° C | 33% | 1015.1 hPa | 0 mm | - | - | - |
| 1777729084 | 23.89° C | 33% | 1015.4 hPa | 0 mm | - | - | - |
| 1777728107 | 23.89° C | 33% | 1015.6 hPa | 0 mm | - | - | - |
| 1777726934 | 23.89° C | 34% | 1015.9 hPa | 0 mm | - | - | - |
| 1777725874 | 23.33° C | 34% | 1016.1 hPa | 0 mm | - | - | - |
| 1777724734 | 22.78° C | 34% | 1016.3 hPa | 0 mm | - | - | - |
| 1777723609 | 22.78° C | 35% | 1016.6 hPa | 0 mm | - | - | - |
| 1777722484 | 22.22° C | 36% | 1017 hPa | 0 mm | - | - | - |
| 1777721369 | 22.22° C | 38% | 1017.1 hPa | 0 mm | - | - | - |
| 1777720314 | 22.22° C | 39% | 1017.3 hPa | 0 mm | - | - | - |
| 1777719244 | 22.22° C | 41% | 1017.6 hPa | 0 mm | - | - | - |
| 1777718049 | 22.22° C | 42% | 1017.7 hPa | 0 mm | - | - | - |
| 1777716874 | 21.11° C | 45% | 1017.9 hPa | 0 mm | - | - | - |
| 1777715684 | 20.56° C | 46% | 1018 hPa | 0 mm | - | - | - |
| 1777714489 | 21.67° C | 45% | 1018.2 hPa | 0 mm | - | - | - |
* Rain latest hour (hover to see other rain measurements)
** Current wind speed in m/s (hover to see current wind gust speed)